createdAt,value
2022-11-28T00:01:18.942Z,101421.56
2022-11-28T00:03:46.676Z,101423.34
2022-11-28T00:06:14.543Z,101406.16
2022-11-28T00:08:42.839Z,101395.69
2022-11-28T00:11:12.457Z,101398.38
2022-11-28T00:13:40.423Z,101398.25
2022-11-28T00:16:13.859Z,101391.47
2022-11-28T00:18:41.559Z,101389.84
2022-11-28T00:21:11.623Z,101398.31
2022-11-28T00:23:40.034Z,101365.53
2022-11-28T00:26:09.832Z,101388.78
2022-11-28T00:28:37.580Z,101388.09
2022-11-28T00:31:05.662Z,101387.13
2022-11-28T00:33:34.891Z,101388.09
2022-11-28T00:36:04.431Z,101378.59
2022-11-28T00:38:32.446Z,101373.41
2022-11-28T00:41:01.571Z,101387.19
2022-11-28T00:43:29.383Z,101371.81
2022-11-28T00:45:57.099Z,101355.38
2022-11-28T00:48:25.254Z,101367.41
2022-11-28T00:50:55.425Z,101362.19
2022-11-28T00:53:23.031Z,101368.25
2022-11-28T00:55:50.607Z,101352.84
2022-11-28T00:58:18.187Z,101353.75
2022-11-28T01:00:45.849Z,101332.25
2022-11-28T01:03:13.498Z,101335.63
2022-11-28T01:05:43.163Z,101334.81
2022-11-28T01:08:12.167Z,101328.72
2022-11-28T01:10:42.123Z,101326.94
2022-11-28T01:13:09.877Z,101284.88
2022-11-28T01:15:40.497Z,101306.16
2022-11-28T01:18:08.187Z,101280.41
2022-11-28T01:20:35.788Z,101276.22
2022-11-28T01:23:03.447Z,101272.09
2022-11-28T01:25:33.188Z,101281.38
2022-11-28T01:28:00.793Z,101280.75
2022-11-28T01:30:28.436Z,101288.13
2022-11-28T01:32:56.013Z,101284.16
2022-11-28T01:35:23.614Z,101262.59
2022-11-28T01:37:51.178Z,101273.50
2022-11-28T01:40:18.782Z,101273.69
2022-11-28T01:42:47.736Z,101272.88
2022-11-28T01:45:19.682Z,101275.41
2022-11-28T01:47:48.408Z,101274.38
2022-11-28T01:50:16.690Z,101253.19
2022-11-28T01:52:46.480Z,101244.53
2022-11-28T01:55:18.364Z,101226.38
2022-11-28T01:57:47.780Z,101211.75
2022-11-28T02:00:19.696Z,101210.84
2022-11-28T02:02:49.675Z,101210.03
2022-11-28T02:05:19.933Z,101200.69
2022-11-28T02:07:48.591Z,101212.81
2022-11-28T02:10:19.439Z,101210.22
2022-11-28T02:13:17.010Z,101204.09
2022-11-28T02:16:10.013Z,101206.84
2022-11-28T02:18:52.306Z,101190.44
2022-11-28T02:21:29.250Z,101183.50
2022-11-28T02:24:28.039Z,101186.09
2022-11-28T02:27:12.168Z,101183.63
2022-11-28T02:30:13.122Z,101178.50
2022-11-28T02:32:56.282Z,101170.72
2022-11-28T02:35:28.611Z,101169.97
2022-11-28T02:38:05.868Z,101165.63
2022-11-28T02:40:39.584Z,101162.03
2022-11-28T02:43:15.978Z,101172.41
2022-11-28T02:45:51.364Z,101174.22
2022-11-28T02:48:27.753Z,101164.78
2022-11-28T02:51:02.106Z,101163.13
2022-11-28T02:53:33.206Z,101162.09
2022-11-28T02:56:01.173Z,101161.41
2022-11-28T02:58:28.797Z,101156.25
2022-11-28T03:00:57.084Z,101148.44
2022-11-28T03:04:00.788Z,101148.47
2022-11-28T03:06:37.080Z,101134.00
2022-11-28T03:09:25.969Z,101134.78
2022-11-28T03:12:04.995Z,101152.91
2022-11-28T03:14:50.146Z,101150.34
2022-11-28T03:17:26.303Z,101155.50
2022-11-28T03:20:02.667Z,101135.78
2022-11-28T03:22:39.246Z,101164.09
2022-11-28T03:25:16.003Z,101165.78
2022-11-28T03:27:48.345Z,101143.34
2022-11-28T03:30:19.743Z,101146.88
2022-11-28T03:32:52.340Z,101144.38
2022-11-28T03:35:24.678Z,101142.56
2022-11-28T03:37:56.011Z,101152.91
2022-11-28T03:40:26.671Z,101142.59
2022-11-28T03:42:59.428Z,101144.34
2022-11-28T03:45:30.592Z,101140.06
2022-11-28T03:48:03.119Z,101140.03
2022-11-28T03:50:37.060Z,101132.34
2022-11-28T03:53:08.428Z,101132.34
2022-11-28T03:55:41.013Z,101129.75
2022-11-28T03:58:13.004Z,101152.88
2022-11-28T04:00:50.614Z,101136.66
2022-11-28T04:03:27.883Z,101143.47
2022-11-28T04:06:03.495Z,101137.47
2022-11-28T04:08:37.701Z,101146.06
2022-11-28T04:11:13.794Z,101145.13
2022-11-28T04:13:48.205Z,101129.75
2022-11-28T04:16:22.342Z,101144.31
2022-11-28T04:18:57.700Z,101138.31
2022-11-28T04:21:31.928Z,101145.22
2022-11-28T04:24:03.709Z,101146.94
2022-11-28T04:26:34.807Z,101143.50
2022-11-28T04:29:07.311Z,101138.31
2022-11-28T04:31:35.606Z,101123.72
2022-11-28T04:34:06.980Z,101109.16
2022-11-28T04:36:40.296Z,101109.09
2022-11-28T04:39:12.864Z,101124.56
2022-11-28T04:41:46.241Z,101157.25
2022-11-28T04:44:17.924Z,101167.47
2022-11-28T04:46:49.548Z,101164.94
2022-11-28T04:50:00.419Z,101155.50
2022-11-28T04:52:35.641Z,101174.38
2022-11-28T04:55:11.066Z,101177.84
2022-11-28T04:57:41.065Z,101188.09
2022-11-28T05:00:12.453Z,101189.00
2022-11-28T05:02:42.912Z,101191.53
2022-11-28T05:05:13.377Z,101182.09
2022-11-28T05:07:42.405Z,101184.69
2022-11-28T05:10:12.432Z,101163.19
2022-11-28T05:12:40.337Z,101153.69
2022-11-28T05:15:08.995Z,101150.31
2022-11-28T05:17:41.959Z,101148.56
2022-11-28T05:20:10.961Z,101146.06
2022-11-28T05:22:38.546Z,101148.56
2022-11-28T05:25:08.256Z,101143.47
2022-11-28T05:27:35.902Z,101142.63
2022-11-28T05:30:03.549Z,101136.63
2022-11-28T05:32:31.878Z,101133.94
2022-11-28T05:34:59.849Z,101128.88
2022-11-28T05:37:27.525Z,101129.75
2022-11-28T05:39:55.150Z,101126.28
2022-11-28T05:42:25.783Z,101119.47
2022-11-28T05:44:53.363Z,101129.78
2022-11-28T05:47:21.028Z,101117.72
2022-11-28T05:49:48.733Z,101122.81
2022-11-28T05:52:16.411Z,101120.28
2022-11-28T05:54:44.026Z,101128.00
2022-11-28T05:57:11.641Z,101108.28
2022-11-28T05:59:40.921Z,101113.41
2022-11-28T06:02:08.907Z,101116.00
2022-11-28T06:04:36.795Z,101127.16
2022-11-28T06:07:04.484Z,101122.88
2022-11-28T06:09:32.060Z,101128.91
2022-11-28T06:11:59.689Z,101134.91
2022-11-28T06:14:27.633Z,101127.16
2022-11-28T06:16:56.627Z,101132.31
2022-11-28T06:19:24.316Z,101129.78
2022-11-28T06:21:52.174Z,101144.31
2022-11-28T06:24:19.771Z,101137.47
2022-11-28T06:26:47.379Z,101130.59
2022-11-28T06:29:14.957Z,101136.59
2022-11-28T06:31:42.625Z,101129.72
2022-11-28T06:34:13.188Z,101124.59
2022-11-28T06:36:40.935Z,101124.53
2022-11-28T06:39:08.574Z,101127.19
2022-11-28T06:41:36.143Z,101133.19
2022-11-28T06:44:03.727Z,101139.09
2022-11-28T06:46:31.343Z,101145.22
2022-11-28T06:48:59.077Z,101137.41
2022-11-28T06:51:28.502Z,101133.09
2022-11-28T06:53:56.434Z,101134.88
2022-11-28T06:56:24.391Z,101140.91
2022-11-28T06:58:56.142Z,101141.78
2022-11-28T07:01:26.060Z,101141.78
2022-11-28T07:03:55.209Z,101145.16
2022-11-28T07:06:23.921Z,101148.59
2022-11-28T07:08:53.546Z,101150.34
2022-11-28T07:11:23.389Z,101146.06
2022-11-28T07:13:51.390Z,101134.03
2022-11-28T07:16:20.847Z,101106.47
2022-11-28T07:18:49.091Z,101130.53
2022-11-28T07:21:17.362Z,101137.47
2022-11-28T07:23:45.279Z,101143.38
2022-11-28T07:26:16.719Z,101145.97
2022-11-28T07:28:45.302Z,101145.97
2022-11-28T07:31:14.835Z,101150.31
2022-11-28T07:33:44.701Z,101154.63
2022-11-28T07:36:14.642Z,101150.34
2022-11-28T07:38:42.424Z,101136.53
2022-11-28T07:41:12.690Z,101147.75
2022-11-28T07:43:42.864Z,101151.16
2022-11-28T07:46:12.900Z,101148.41
2022-11-28T07:48:40.773Z,101157.06
2022-11-28T07:51:10.424Z,101161.38
2022-11-28T07:53:39.062Z,101167.41
2022-11-28T07:56:08.962Z,101158.00
2022-11-28T07:58:39.301Z,101164.00
2022-11-28T08:01:11.585Z,101158.03
2022-11-28T08:03:39.733Z,101159.66
2022-11-28T08:06:08.672Z,101163.13
2022-11-28T08:08:37.105Z,101156.28
2022-11-28T08:11:08.172Z,101167.44
2022-11-28T08:13:36.610Z,101157.97
2022-11-28T08:16:06.313Z,101159.72
2022-11-28T08:18:35.468Z,101150.28
2022-11-28T08:21:07.309Z,101158.03
2022-11-28T08:23:35.739Z,101168.34
2022-11-28T08:26:03.762Z,101157.19
2022-11-28T08:28:31.789Z,101163.22
2022-11-28T08:31:01.461Z,101156.28
2022-11-28T08:33:29.227Z,101171.75
2022-11-28T08:35:58.210Z,101162.34
2022-11-28T08:38:25.884Z,101167.50
2022-11-28T08:41:02.185Z,101170.94
2022-11-28T08:43:29.796Z,101172.63
2022-11-28T08:45:57.554Z,101173.38
2022-11-28T08:48:25.272Z,101185.47
2022-11-28T08:50:53.075Z,101166.56
2022-11-28T08:53:22.008Z,101185.50
2022-11-28T08:55:49.801Z,101183.72
2022-11-28T08:58:17.404Z,101192.34
2022-11-28T09:00:45.081Z,101194.06
2022-11-28T09:03:15.485Z,101196.66
2022-11-28T09:05:45.312Z,101182.91
2022-11-28T09:08:13.387Z,101193.19
2022-11-28T09:10:44.137Z,101199.22
2022-11-28T09:13:13.012Z,101205.25
2022-11-28T09:15:41.933Z,101203.50
2022-11-28T09:18:09.792Z,101201.81
2022-11-28T09:20:37.422Z,101202.66
2022-11-28T09:23:05.008Z,101206.13
2022-11-28T09:25:32.772Z,101211.31
2022-11-28T09:28:02.065Z,101203.56
2022-11-28T09:30:29.882Z,101214.75
2022-11-28T09:32:57.600Z,101219.03
2022-11-28T09:35:25.251Z,101205.19
2022-11-28T09:37:52.859Z,101212.13
2022-11-28T09:40:27.720Z,101214.75
2022-11-28T09:42:55.478Z,101210.44
2022-11-28T09:45:26.288Z,101214.75
2022-11-28T09:47:58.869Z,101207.88
2022-11-28T09:50:29.099Z,101215.59
2022-11-28T09:53:02.664Z,101209.56
2022-11-28T09:55:36.242Z,101202.69
2022-11-28T09:58:12.905Z,101211.28
2022-11-28T10:00:50.299Z,101195.00
2022-11-28T10:03:35.984Z,101203.56
2022-11-28T10:06:13.789Z,101203.56
2022-11-28T10:08:55.965Z,101204.44
2022-11-28T10:11:37.989Z,101207.75
2022-11-28T10:14:19.263Z,101206.97
2022-11-28T10:16:55.591Z,101203.53
2022-11-28T10:19:53.272Z,101192.31
2022-11-28T10:22:23.543Z,101200.13
2022-11-28T10:24:54.883Z,101192.41
2022-11-28T10:27:27.161Z,101188.91
2022-11-28T10:30:01.482Z,101195.84
2022-11-28T10:32:35.217Z,101187.25
2022-11-28T10:35:06.801Z,101179.53
2022-11-28T10:37:39.054Z,101190.69
2022-11-28T10:40:19.059Z,101188.16
2022-11-28T10:42:56.190Z,101181.22
2022-11-28T10:45:30.630Z,101182.03
2022-11-28T10:48:38.903Z,101188.97
2022-11-28T10:51:18.878Z,101181.09
2022-11-28T10:53:52.211Z,101179.53
2022-11-28T10:56:32.343Z,101179.53
2022-11-28T10:59:07.484Z,101183.78
2022-11-28T11:01:39.270Z,101180.41
2022-11-28T11:04:18.441Z,101180.22
2022-11-28T11:07:08.426Z,101182.06
2022-11-28T11:09:38.966Z,101189.75
2022-11-28T11:12:16.261Z,101190.66
2022-11-28T11:14:44.747Z,101185.41
2022-11-28T11:17:29.047Z,101180.94
2022-11-28T11:20:02.471Z,101174.06
2022-11-28T11:22:32.000Z,101187.75
2022-11-28T11:25:15.291Z,101191.22
2022-11-28T11:27:50.315Z,101184.28
2022-11-28T11:30:26.050Z,101185.22
2022-11-28T11:32:56.051Z,101180.09
2022-11-28T11:35:27.949Z,101186.91
2022-11-28T11:38:14.643Z,101193.06
2022-11-28T11:40:42.621Z,101184.41
2022-11-28T11:43:25.396Z,101184.50
2022-11-28T11:46:06.498Z,101194.69
2022-11-28T11:48:39.859Z,101189.44
2022-11-28T11:51:21.593Z,101193.16
2022-11-28T11:53:49.343Z,101169.97
2022-11-28T11:56:17.362Z,101193.97
2022-11-28T11:58:49.783Z,101183.59
2022-11-28T12:01:20.641Z,101187.91
2022-11-28T12:03:54.704Z,101182.72
2022-11-28T12:06:27.024Z,101178.38
2022-11-28T12:09:01.438Z,101183.63
2022-11-28T12:11:33.066Z,101176.72
2022-11-28T12:14:06.067Z,101178.41
2022-11-28T12:16:47.365Z,101174.09
2022-11-28T12:19:26.170Z,101181.56
2022-11-28T12:22:07.412Z,101184.50
2022-11-28T12:24:44.139Z,101162.97
2022-11-28T12:27:22.892Z,101174.09
2022-11-28T12:30:01.559Z,101177.66
2022-11-28T12:32:44.342Z,101182.88
2022-11-28T12:35:28.576Z,101187.06
2022-11-28T12:38:12.022Z,101193.25
2022-11-28T12:40:54.624Z,101205.25
2022-11-28T12:43:35.632Z,101192.34
2022-11-28T12:46:11.528Z,101200.94
2022-11-28T12:48:53.538Z,101181.81
2022-11-28T12:51:34.963Z,101191.38
2022-11-28T12:54:18.727Z,101190.59
2022-11-28T12:56:55.697Z,101176.00
2022-11-28T12:59:30.497Z,101176.03
2022-11-28T13:02:11.833Z,101183.69
2022-11-28T13:04:53.935Z,101176.78
2022-11-28T13:07:34.849Z,101177.44
2022-11-28T13:10:11.972Z,101186.13
2022-11-28T13:12:48.478Z,101187.97
2022-11-28T13:15:22.231Z,101191.34
2022-11-28T13:17:55.031Z,101175.78
2022-11-28T13:20:30.578Z,101187.06
2022-11-28T13:23:11.700Z,101189.69
2022-11-28T13:25:51.142Z,101177.69
2022-11-28T13:28:22.934Z,101170.72
2022-11-28T13:30:57.142Z,101165.38
2022-11-28T13:33:51.338Z,101170.72
2022-11-28T13:39:26.839Z,101164.63
2022-11-28T13:42:28.427Z,101164.75
2022-11-28T13:44:58.705Z,101190.50
2022-11-28T13:47:30.116Z,101177.44
2022-11-28T13:50:35.197Z,101169.94
2022-11-28T13:53:20.014Z,101178.50
2022-11-28T13:55:49.456Z,101168.97
2022-11-28T13:58:22.566Z,101170.56
2022-11-28T14:01:08.715Z,101142.31
2022-11-28T14:03:45.202Z,101173.38
2022-11-28T14:06:14.476Z,101155.03
2022-11-28T14:08:44.605Z,101169.81
2022-11-28T14:11:41.812Z,101180.31
2022-11-28T14:14:42.587Z,101166.25
2022-11-28T14:17:31.824Z,101178.28
2022-11-28T14:20:16.331Z,101179.19
2022-11-28T14:22:58.234Z,101182.66
2022-11-28T14:25:31.535Z,101177.41
2022-11-28T14:28:02.469Z,101189.38
2022-11-28T14:30:37.567Z,101189.19
2022-11-28T14:33:08.680Z,101197.84
2022-11-28T14:36:16.432Z,101200.81
2022-11-28T14:38:46.016Z,101153.06
2022-11-28T14:41:15.231Z,101204.13
2022-11-28T14:43:45.901Z,101203.50
2022-11-28T14:46:34.724Z,101195.78
2022-11-28T14:49:21.630Z,101194.63
2022-11-28T14:55:18.959Z,101208.34
2022-11-28T14:57:56.891Z,101214.53
2022-11-28T15:00:26.683Z,101195.50
2022-11-28T15:03:18.526Z,101209.06
2022-11-28T15:05:48.066Z,101216.09
2022-11-28T15:08:30.756Z,101210.97
2022-11-28T15:11:10.853Z,101201.19
2022-11-28T15:13:50.292Z,101208.16
2022-11-28T15:16:20.629Z,101211.06
2022-11-28T15:18:53.627Z,101203.13
2022-11-28T15:21:23.254Z,101222.19
2022-11-28T15:23:52.656Z,101221.31
2022-11-28T15:26:22.586Z,101211.75
2022-11-28T15:28:50.266Z,101210.00
2022-11-28T15:31:22.928Z,101215.44
2022-11-28T15:33:52.084Z,101219.47
2022-11-28T15:36:26.959Z,101216.72
2022-11-28T15:38:55.283Z,101224.84
2022-11-28T15:41:25.287Z,101218.78
2022-11-28T15:43:54.983Z,101192.97
2022-11-28T15:46:30.803Z,101216.94
2022-11-28T15:49:01.411Z,101222.00
2022-11-28T15:51:31.051Z,101221.53
2022-11-28T15:53:59.303Z,101233.03
2022-11-28T15:56:27.388Z,101228.00
2022-11-28T15:58:55.175Z,101235.06
2022-11-28T16:01:24.543Z,101223.53
2022-11-28T16:03:58.118Z,101238.25
2022-11-28T16:06:30.979Z,101236.63
2022-11-28T16:09:01.136Z,101227.25
2022-11-28T16:11:31.555Z,101227.66
2022-11-28T16:14:01.850Z,101205.31
2022-11-28T16:16:33.175Z,101228.84
2022-11-28T16:19:03.281Z,101230.63
2022-11-28T16:21:35.225Z,101237.22
2022-11-28T16:24:04.108Z,101226.94
2022-11-28T16:26:34.375Z,101237.94
2022-11-28T16:29:11.783Z,101245.13
2022-11-28T16:31:39.877Z,101240.47
2022-11-28T16:34:13.541Z,101244.03
2022-11-28T16:36:43.838Z,101241.47
2022-11-28T16:39:16.747Z,101247.50
2022-11-28T16:41:51.878Z,101240.53
2022-11-28T16:44:22.244Z,101242.19
2022-11-28T16:46:53.131Z,101253.66
2022-11-28T16:49:34.242Z,101260.38
2022-11-28T16:52:43.608Z,101256.19
2022-11-28T16:55:44.305Z,101248.47
2022-11-28T16:58:17.497Z,101250.03
2022-11-28T17:00:51.684Z,101242.19
2022-11-28T17:03:38.426Z,101253.13
2022-11-28T17:06:06.294Z,101259.34
2022-11-28T17:08:35.253Z,101265.59
2022-11-28T17:11:02.886Z,101269.22
2022-11-28T17:13:30.987Z,101267.09
2022-11-28T17:15:59.509Z,101268.28
2022-11-28T17:18:27.176Z,101269.09
2022-11-28T17:20:54.854Z,101273.31
2022-11-28T17:23:26.205Z,101268.09
2022-11-28T17:25:55.146Z,101275.91
2022-11-28T17:28:27.824Z,101283.69
2022-11-28T17:30:56.712Z,101274.75
2022-11-28T17:33:24.291Z,101269.34
2022-11-28T17:35:53.557Z,101275.66
2022-11-28T17:38:21.211Z,101270.13
2022-11-28T17:40:48.861Z,101267.00
2022-11-28T17:43:19.607Z,101253.84
2022-11-28T17:45:48.800Z,101271.28
2022-11-28T17:48:17.882Z,101266.97
2022-11-28T17:50:47.699Z,101277.34
2022-11-28T17:53:18.299Z,101260.28
2022-11-28T17:55:48.173Z,101270.69
2022-11-28T17:58:19.679Z,101261.81
2022-11-28T18:00:48.815Z,101264.44
2022-11-28T18:03:18.010Z,101271.41
2022-11-28T18:05:47.607Z,101269.41
2022-11-28T18:08:21.772Z,101276.38
2022-11-28T18:10:50.192Z,101259.00
2022-11-28T18:13:19.150Z,101272.75
2022-11-28T18:15:48.010Z,101277.16
2022-11-28T18:18:15.667Z,101269.38
2022-11-28T18:20:43.310Z,101265.81
2022-11-28T18:23:12.525Z,101276.16
2022-11-28T18:25:43.594Z,101276.22
2022-11-28T18:28:17.254Z,101291.88
2022-11-28T18:30:48.989Z,101287.56
2022-11-28T18:33:17.459Z,101269.41
2022-11-28T18:35:45.089Z,101273.69
2022-11-28T18:38:12.727Z,101285.06
2022-11-28T18:40:40.871Z,101279.25
2022-11-28T18:43:08.459Z,101288.56
2022-11-28T18:45:36.227Z,101277.81
2022-11-28T18:48:05.446Z,101264.47
2022-11-28T18:50:33.030Z,101280.66
2022-11-28T18:53:01.892Z,101293.09
2022-11-28T18:55:29.467Z,101297.38
2022-11-28T18:57:57.048Z,101283.16
2022-11-28T19:00:24.704Z,101279.63
2022-11-28T19:02:53.134Z,101290.72
2022-11-28T19:05:22.090Z,101293.56
2022-11-28T19:07:49.977Z,101291.69
2022-11-28T19:10:17.811Z,101303.34
2022-11-28T19:12:45.383Z,101306.09
2022-11-28T19:15:13.015Z,101289.84
2022-11-28T19:17:40.661Z,101297.06
2022-11-28T19:20:09.855Z,101302.53
2022-11-28T19:22:38.815Z,101301.28
2022-11-28T19:25:07.680Z,101300.44
2022-11-28T19:27:35.328Z,101306.13
2022-11-28T19:30:03.024Z,101305.53
2022-11-28T19:32:30.602Z,101302.75
2022-11-28T19:34:58.254Z,101300.16
2022-11-28T19:37:25.873Z,101299.06
2022-11-28T19:39:57.447Z,101309.56
2022-11-28T19:42:28.730Z,101303.22
2022-11-28T19:44:56.301Z,101313.53
2022-11-28T19:47:23.874Z,101308.84
2022-11-28T19:49:51.430Z,101318.97
2022-11-28T19:52:19.056Z,101309.41
2022-11-28T19:54:46.702Z,101312.84
2022-11-28T19:57:15.717Z,101308.41
2022-11-28T19:59:43.550Z,101318.84
2022-11-28T20:02:11.592Z,101316.09
2022-11-28T20:04:40.310Z,101322.28
2022-11-28T20:07:07.951Z,101320.16
2022-11-28T20:09:35.576Z,101323.16
2022-11-28T20:12:03.179Z,101311.13
2022-11-28T20:14:32.317Z,101315.56
2022-11-28T20:17:00.897Z,101328.28
2022-11-28T20:19:28.593Z,101326.19
2022-11-28T20:21:57.727Z,101335.69
2022-11-28T20:24:25.858Z,101335.19
2022-11-28T20:26:53.479Z,101328.81
2022-11-28T20:29:21.298Z,101327.31
2022-11-28T20:31:50.252Z,101325.56
2022-11-28T20:34:18.891Z,101328.03
2022-11-28T20:36:47.059Z,101323.72
2022-11-28T20:39:14.652Z,101329.81
2022-11-28T20:41:42.232Z,101319.00
2022-11-28T20:44:11.332Z,101330.81
2022-11-28T20:46:39.830Z,101326.66
2022-11-28T20:49:08.791Z,101329.03
2022-11-28T20:51:37.136Z,101331.91
2022-11-28T20:54:06.332Z,101328.16
2022-11-28T20:57:05.026Z,101318.09
2022-11-28T20:59:26.656Z,101330.94
2022-11-28T21:01:54.413Z,101336.44
2022-11-28T21:04:23.407Z,101328.81
2022-11-28T21:06:51.020Z,101317.06
2022-11-28T21:09:20.353Z,101335.47
2022-11-28T21:11:57.893Z,101337.47
2022-11-28T21:14:26.485Z,101334.69
2022-11-28T21:16:54.144Z,101330.19
2022-11-28T21:19:23.157Z,101332.38
2022-11-28T21:21:50.786Z,101328.59
2022-11-28T21:24:18.490Z,101331.34
2022-11-28T21:26:51.277Z,101344.47
2022-11-28T21:29:21.234Z,101338.25
2022-11-28T21:31:48.961Z,101333.97
2022-11-28T21:34:17.633Z,101328.69
2022-11-28T21:36:47.017Z,101345.28
2022-11-28T21:39:16.423Z,101332.38
2022-11-28T21:41:44.067Z,101334.69
2022-11-28T21:44:11.730Z,101333.97
2022-11-28T21:46:39.413Z,101342.91
2022-11-28T21:49:07.027Z,101332.97
2022-11-28T21:51:34.619Z,101336.72
2022-11-28T21:54:03.583Z,101338.06
2022-11-28T21:56:31.170Z,101345.63
2022-11-28T21:58:58.805Z,101345.81
2022-11-28T22:01:26.508Z,101346.09
2022-11-28T22:03:59.052Z,101338.75
2022-11-28T22:06:29.756Z,101336.41
2022-11-28T22:08:57.743Z,101345.91
2022-11-28T22:11:26.686Z,101339.97
2022-11-28T22:13:54.298Z,101349.44
2022-11-28T22:16:23.576Z,101341.53
2022-11-28T22:18:53.007Z,101357.22
2022-11-28T22:24:08.987Z,101357.09
2022-11-28T22:26:37.995Z,101362.31
2022-11-28T22:29:05.830Z,101349.03
2022-11-28T22:31:33.805Z,101357.94
2022-11-28T22:34:01.470Z,101344.63
2022-11-28T22:36:29.115Z,101357.00
2022-11-28T22:38:58.846Z,101360.75
2022-11-28T22:41:29.897Z,101361.81
2022-11-28T22:44:01.333Z,101349.56
2022-11-28T22:46:29.401Z,101345.97
2022-11-28T22:48:57.044Z,101360.59
2022-11-28T22:51:26.592Z,101353.66
2022-11-28T22:53:54.992Z,101351.16
2022-11-28T22:56:22.706Z,101361.41
2022-11-28T22:58:50.380Z,101359.72
2022-11-28T23:01:21.941Z,101360.75
2022-11-28T23:03:50.552Z,101365.91
2022-11-28T23:06:20.186Z,101330.19
2022-11-28T23:08:48.372Z,101355.06
2022-11-28T23:11:18.591Z,101358.94
2022-11-28T23:13:47.867Z,101361.53
2022-11-28T23:16:17.337Z,101363.13
2022-11-28T23:18:49.150Z,101364.84
2022-11-28T23:21:18.691Z,101367.38
2022-11-28T23:23:46.807Z,101367.22
2022-11-28T23:26:16.625Z,101370.56
2022-11-28T23:28:44.655Z,101369.16
2022-11-28T23:31:15.409Z,101376.84
2022-11-28T23:33:43.545Z,101377.81
2022-11-28T23:36:17.724Z,101378.56
2022-11-28T23:38:46.557Z,101385.44
2022-11-28T23:41:14.864Z,101376.56
2022-11-28T23:43:42.923Z,101380.81
2022-11-28T23:46:12.001Z,101382.88
2022-11-28T23:48:40.296Z,101387.34
2022-11-28T23:51:08.436Z,101382.19
2022-11-28T23:53:37.851Z,101376.84
2022-11-28T23:56:06.789Z,101368.19
2022-11-28T23:58:35.200Z,101384.41
